Time;durP1;ratioP1;P1;durP2;ratioP2;P2;SDS_P1;SDS_P2;PMS_P1;PMS_P2;Temp;Humidity;BMP_temperature;BMP_pressure;BME280_temperature;BME280_humidity;BME280_pressure;Samples;Min_cycle;Max_cycle;Signal;HPM_P1;HPM_P2
2023/02/26 00:01:19;;;;;;;2.08;1.92;;;20.30;56.90;;;;;;5063147;28;20127;-78
2023/02/26 00:03:52;;;;;;;3.53;2.08;;;20.30;57.00;;;;;;5064519;28;20485;-78
2023/02/26 00:06:17;;;;;;;3.60;2.42;;;20.20;56.90;;;;;;5045581;28;20555;-77
2023/02/26 00:08:43;;;;;;;2.08;1.98;;;20.20;57.00;;;;;;5044797;28;20049;-77
2023/02/26 00:11:09;;;;;;;2.10;1.90;;;20.20;57.40;;;;;;5047479;28;20057;-77
2023/02/26 00:13:35;;;;;;;1.90;1.80;;;20.10;57.30;;;;;;5047990;28;20052;-77
2023/02/26 00:16:01;;;;;;;2.35;1.67;;;20.20;57.30;;;;;;5043925;28;20391;-78
2023/02/26 00:18:27;;;;;;;1.70;1.60;;;20.10;57.40;;;;;;5049262;28;20506;-78
2023/02/26 00:20:53;;;;;;;2.22;2.08;;;20.00;57.50;;;;;;5045562;28;20506;-77
2023/02/26 00:23:19;;;;;;;2.08;1.90;;;20.00;57.50;;;;;;5048703;28;20056;-77
2023/02/26 00:25:44;;;;;;;1.92;1.58;;;20.00;57.50;;;;;;5056947;28;20037;-77
2023/02/26 00:28:10;;;;;;;1.65;1.50;;;19.90;57.60;;;;;;5055798;28;20450;-77
2023/02/26 00:30:36;;;;;;;2.65;1.75;;;19.90;57.50;;;;;;5046171;28;20506;-78
2023/02/26 00:33:02;;;;;;;1.70;1.60;;;19.90;57.40;;;;;;5047512;28;20041;-78
2023/02/26 00:35:28;;;;;;;1.70;1.60;;;19.90;57.60;;;;;;5048208;28;23584;-78
2023/02/26 00:38:02;;;;;;;1.30;1.20;;;19.80;57.80;;;;;;5043839;28;20045;-77
2023/02/26 00:40:44;;;;;;;1.50;1.40;;;19.80;57.80;;;;;;5076794;28;20099;-78
2023/02/26 00:43:28;;;;;;;2.30;2.00;;;19.70;57.70;;;;;;5044663;28;20329;-77
2023/02/26 00:46:19;;;;;;;1.70;1.60;;;19.80;58.00;;;;;;5048708;28;20047;-77
2023/02/26 00:48:53;;;;;;;1.65;1.55;;;19.80;58.60;;;;;;5046608;28;20128;-77
2023/02/26 00:51:31;;;;;;;1.50;1.40;;;19.70;58.00;;;;;;5050274;28;20052;-77
2023/02/26 00:53:58;;;;;;;1.83;1.65;;;19.60;58.10;;;;;;5053269;28;20048;-77
2023/02/26 00:56:23;;;;;;;1.52;1.42;;;19.60;58.10;;;;;;5067877;28;20618;-77
2023/02/26 00:58:49;;;;;;;1.85;1.75;;;19.50;58.00;;;;;;5089588;28;21853;-77
2023/02/26 01:01:15;;;;;;;2.63;2.03;;;19.50;58.30;;;;;;5067972;28;20097;-77
2023/02/26 01:03:40;;;;;;;1.90;1.80;;;19.60;58.10;;;;;;5067580;28;20067;-77
2023/02/26 01:06:10;;;;;;;1.60;1.50;;;19.50;58.30;;;;;;5063928;28;20060;-77
2023/02/26 01:09:04;;;;;;;1.90;1.80;;;19.50;58.30;;;;;;5041280;28;20127;-77
2023/02/26 01:11:31;;;;;;;1.45;1.23;;;19.40;58.00;;;;;;5064163;28;20053;-77
2023/02/26 01:13:57;;;;;;;1.55;1.45;;;19.40;58.90;;;;;;5067554;28;20056;-77
2023/02/26 01:16:25;;;;;;;1.70;1.60;;;19.40;58.40;;;;;;5066254;28;20524;-77
2023/02/26 01:19:31;;;;;;;1.73;1.63;;;19.30;58.40;;;;;;5047171;28;20068;-77
2023/02/26 01:22:09;;;;;;;1.67;1.58;;;19.30;58.60;;;;;;5051253;28;20044;-77
2023/02/26 01:24:34;;;;;;;1.50;1.33;;;19.30;58.50;;;;;;5048209;28;20044;-77
2023/02/26 01:27:00;;;;;;;2.17;1.27;;;19.20;58.40;;;;;;5044491;28;20045;-77
2023/02/26 01:29:26;;;;;;;1.60;1.50;;;19.20;58.60;;;;;;5045339;28;20613;-77
2023/02/26 01:32:15;;;;;;;1.60;1.50;;;19.20;58.50;;;;;;5045396;28;20048;-77
2023/02/26 01:35:12;;;;;;;1.50;1.40;;;19.20;59.10;;;;;;5072331;28;20316;-77
2023/02/26 01:37:45;;;;;;;2.42;1.30;;;19.10;58.60;;;;;;5080948;28;20071;-77
2023/02/26 01:40:35;;;;;;;4.30;1.00;;;19.00;58.60;;;;;;5050845;28;20047;-77
2023/02/26 01:43:08;;;;;;;1.52;1.42;;;19.00;58.70;;;;;;5057511;28;20041;-77
2023/02/26 01:45:35;;;;;;;2.10;1.63;;;19.00;58.70;;;;;;5052859;28;20044;-77
2023/02/26 01:48:06;;;;;;;1.40;1.30;;;19.00;58.70;;;;;;5045527;28;20037;-77
2023/02/26 01:50:34;;;;;;;1.30;1.20;;;19.00;58.70;;;;;;5045084;28;20064;-77
2023/02/26 01:53:19;;;;;;;1.52;1.30;;;19.00;58.70;;;;;;5045765;28;20414;-77
2023/02/26 01:55:46;;;;;;;1.10;1.05;;;18.90;58.80;;;;;;5047569;28;20033;-77
2023/02/26 01:58:12;;;;;;;1.30;1.20;;;19.00;58.80;;;;;;5045087;28;20055;-77
2023/02/26 02:00:37;;;;;;;1.30;1.20;;;18.80;58.80;;;;;;5046646;28;20438;-77
2023/02/26 02:03:03;;;;;;;1.50;1.40;;;18.80;59.00;;;;;;5044279;28;20045;-77
2023/02/26 02:05:46;;;;;;;1.02;1.00;;;18.80;58.80;;;;;;5046405;28;20510;-77
2023/02/26 02:08:12;;;;;;;1.33;1.23;;;18.80;59.10;;;;;;5053889;28;20130;-77
2023/02/26 02:10:40;;;;;;;1.10;1.00;;;18.80;58.90;;;;;;5058937;28;20561;-77
2023/02/26 02:13:11;;;;;;;1.20;1.10;;;18.70;58.90;;;;;;5059398;28;20045;-82
2023/02/26 02:16:13;;;;;;;0.88;0.88;;;18.70;59.00;;;;;;5058962;28;20500;-83
2023/02/26 02:18:45;;;;;;;1.10;0.98;;;18.70;59.10;;;;;;5061649;28;20040;-83
2023/02/26 02:21:35;;;;;;;1.10;1.10;;;18.70;59.00;;;;;;5056958;28;20522;-82
2023/02/26 02:24:13;;;;;;;1.02;1.00;;;18.60;58.90;;;;;;5043450;28;20028;-83
2023/02/26 02:27:08;;;;;;;1.17;1.10;;;18.60;59.10;;;;;;5046017;28;20052;-83
2023/02/26 02:29:54;;;;;;;1.15;1.05;;;18.60;59.30;;;;;;5059961;28;20048;-83
2023/02/26 02:32:33;;;;;;;1.08;0.98;;;18.50;59.30;;;;;;5066433;28;20095;-83
2023/02/26 02:35:08;;;;;;;1.35;1.25;;;18.50;59.30;;;;;;5047732;28;20437;-82
2023/02/26 02:37:43;;;;;;;1.10;1.10;;;18.50;59.30;;;;;;5044930;28;20037;-82
2023/02/26 02:40:14;;;;;;;0.80;0.80;;;18.50;59.30;;;;;;5042389;28;20062;-82
2023/02/26 02:42:44;;;;;;;1.20;1.10;;;18.50;59.30;;;;;;5045470;28;20048;-83
2023/02/26 02:45:17;;;;;;;1.10;1.00;;;18.50;59.40;;;;;;5043931;28;20036;-82
2023/02/26 02:47:43;;;;;;;1.35;1.25;;;18.40;59.30;;;;;;5042550;28;20041;-83
2023/02/26 02:50:11;;;;;;;1.00;0.95;;;18.40;59.30;;;;;;5045106;28;20048;-83
2023/02/26 02:52:41;;;;;;;1.38;1.27;;;18.40;59.30;;;;;;5046244;28;20051;-83
2023/02/26 02:55:13;;;;;;;1.27;1.17;;;18.40;59.40;;;;;;5040582;28;20083;-83
2023/02/26 02:57:48;;;;;;;1.20;1.10;;;18.40;59.30;;;;;;5043980;28;20072;-83
2023/02/26 03:00:14;;;;;;;1.10;0.88;;;18.40;59.30;;;;;;5045490;28;20049;-82
2023/02/26 03:02:55;;;;;;;0.90;0.90;;;18.30;59.50;;;;;;5031928;28;20448;-82
2023/02/26 03:05:21;;;;;;;1.08;0.98;;;18.30;59.50;;;;;;5042891;28;20050;-82
2023/02/26 03:07:57;;;;;;;1.20;0.73;;;18.30;59.50;;;;;;5044606;28;20045;-83
2023/02/26 03:10:22;;;;;;;0.80;0.80;;;18.30;59.40;;;;;;5046307;28;20040;-83
2023/02/26 03:12:48;;;;;;;1.00;0.90;;;18.20;59.50;;;;;;5048227;28;20040;-83
2023/02/26 03:15:14;;;;;;;0.82;0.82;;;18.30;59.60;;;;;;5058958;28;20043;-83
2023/02/26 03:17:53;;;;;;;1.10;1.00;;;18.20;59.60;;;;;;5068067;28;20518;-82
2023/02/26 03:20:26;;;;;;;1.10;1.00;;;18.20;59.60;;;;;;5061161;28;20140;-82
2023/02/26 03:23:05;;;;;;;1.10;0.82;;;18.20;59.70;;;;;;5060402;28;20564;-82
2023/02/26 03:25:42;;;;;;;0.65;0.65;;;18.10;59.70;;;;;;5062699;28;20128;-82
2023/02/26 03:28:16;;;;;;;1.08;1.00;;;18.10;59.80;;;;;;5047481;28;20134;-82
2023/02/26 03:30:53;;;;;;;1.05;0.95;;;18.10;59.80;;;;;;5047265;28;20045;-83
2023/02/26 03:33:21;;;;;;;0.70;0.70;;;18.10;59.80;;;;;;5046779;28;20112;-82
2023/02/26 03:35:56;;;;;;;1.10;0.85;;;18.10;59.80;;;;;;5049377;28;20040;-83
2023/02/26 03:38:42;;;;;;;1.38;1.15;;;18.10;59.70;;;;;;5049545;28;20056;-82
2023/02/26 03:41:29;;;;;;;0.70;0.70;;;18.00;59.80;;;;;;5053854;28;20529;-82
2023/02/26 03:44:02;;;;;;;1.00;0.68;;;18.00;59.90;;;;;;5048070;28;20041;-83
2023/02/26 03:46:37;;;;;;;0.95;0.80;;;18.00;59.90;;;;;;5047660;28;20049;-82
2023/02/26 03:49:06;;;;;;;1.02;1.00;;;18.00;60.70;;;;;;5049418;28;20044;-81
2023/02/26 03:51:31;;;;;;;1.33;0.80;;;17.90;60.00;;;;;;5038272;28;20053;-82
2023/02/26 03:54:22;;;;;;;1.30;1.20;;;17.90;59.90;;;;;;5046888;28;20178;-83
2023/02/26 03:56:48;;;;;;;1.48;1.38;;;17.90;60.10;;;;;;5066096;28;20040;-82
2023/02/26 03:59:14;;;;;;;1.10;1.00;;;17.90;60.10;;;;;;5048435;28;20041;-82
2023/02/26 04:01:53;;;;;;;1.17;1.08;;;17.90;60.10;;;;;;5056709;28;20503;-82
2023/02/26 04:04:56;;;;;;;1.13;1.02;;;17.90;60.10;;;;;;5067065;28;20055;-82
2023/02/26 04:07:21;;;;;;;1.10;1.00;;;17.90;60.10;;;;;;4983296;28;20069;-82
2023/02/26 04:09:49;;;;;;;1.00;0.88;;;17.80;60.10;;;;;;4970540;28;20138;-82
2023/02/26 04:12:14;;;;;;;1.05;0.93;;;17.80;60.20;;;;;;5000590;28;20579;-82
2023/02/26 04:14:40;;;;;;;1.02;0.93;;;17.80;60.30;;;;;;5018456;28;20049;-82
2023/02/26 04:17:06;;;;;;;0.70;0.70;;;17.80;60.40;;;;;;5000805;28;20061;-83
2023/02/26 04:19:31;;;;;;;2.05;1.00;;;17.80;60.50;;;;;;5011305;28;20034;-83
2023/02/26 04:21:57;;;;;;;1.20;1.10;;;17.70;60.40;;;;;;5001203;28;20042;-82
2023/02/26 04:24:22;;;;;;;0.85;0.75;;;17.80;60.30;;;;;;5001141;28;20443;-83
2023/02/26 04:26:48;;;;;;;1.17;0.90;;;17.70;60.30;;;;;;4990113;28;20116;-82
2023/02/26 04:29:13;;;;;;;1.40;1.10;;;17.70;60.40;;;;;;5007640;28;20400;-81
2023/02/26 04:31:40;;;;;;;0.93;0.80;;;17.70;60.20;;;;;;5004401;28;20042;-82
2023/02/26 04:34:05;;;;;;;1.15;1.05;;;17.70;60.30;;;;;;4980893;28;22417;-82
2023/02/26 04:36:31;;;;;;;0.90;0.68;;;17.70;60.30;;;;;;5004300;28;20117;-82
2023/02/26 04:38:57;;;;;;;0.80;0.80;;;17.60;60.40;;;;;;5002087;28;20042;-82
2023/02/26 04:41:22;;;;;;;0.82;0.82;;;17.60;60.40;;;;;;5014548;28;20510;-82
2023/02/26 04:43:48;;;;;;;1.52;0.95;;;17.60;60.30;;;;;;5052228;28;20048;-82
2023/02/26 04:46:14;;;;;;;1.90;0.70;;;17.60;60.50;;;;;;5044912;28;20515;-82
2023/02/26 04:48:39;;;;;;;0.93;0.85;;;17.60;60.50;;;;;;5054869;28;20045;-82
2023/02/26 04:51:05;;;;;;;0.80;0.75;;;17.50;60.50;;;;;;5047214;28;20606;-83
2023/02/26 04:53:30;;;;;;;0.90;0.90;;;17.50;60.50;;;;;;5058848;28;20040;-82
2023/02/26 04:55:56;;;;;;;1.52;1.38;;;17.50;60.80;;;;;;5052096;28;20044;-81
2023/02/26 04:58:22;;;;;;;0.80;0.80;;;17.50;60.40;;;;;;5046679;28;20819;-82
2023/02/26 05:00:51;;;;;;;0.95;0.90;;;17.50;60.30;;;;;;5046066;28;20044;-82
2023/02/26 05:03:17;;;;;;;0.95;0.80;;;17.50;60.30;;;;;;5046119;28;20045;-82
2023/02/26 05:05:42;;;;;;;0.65;0.65;;;17.50;60.70;;;;;;5045644;28;20044;-82
2023/02/26 05:08:08;;;;;;;0.73;0.70;;;17.40;60.70;;;;;;5046163;28;20525;-81
2023/02/26 05:10:34;;;;;;;1.00;0.95;;;17.40;60.70;;;;;;5046955;28;21464;-82
2023/02/26 05:12:59;;;;;;;1.35;1.13;;;17.40;60.70;;;;;;5050858;28;20047;-82
2023/02/26 05:15:25;;;;;;;0.85;0.85;;;17.40;61.00;;;;;;5055078;28;20394;-82
2023/02/26 05:17:50;;;;;;;0.80;0.80;;;17.40;61.00;;;;;;5046723;28;20048;-82
2023/02/26 05:20:16;;;;;;;0.73;0.63;;;17.40;60.50;;;;;;5046790;28;20494;-82
2023/02/26 05:22:42;;;;;;;2.35;1.13;;;17.40;60.70;;;;;;5047181;28;20052;-82
2023/02/26 05:25:08;;;;;;;0.95;0.88;;;17.40;60.60;;;;;;5055322;28;20037;-79
2023/02/26 05:27:34;;;;;;;2.33;1.08;;;17.30;60.70;;;;;;5045045;28;20099;-82
2023/02/26 05:29:59;;;;;;;0.88;0.70;;;17.30;60.30;;;;;;5046135;28;20041;-82
2023/02/26 05:32:25;;;;;;;0.75;0.70;;;17.40;60.30;;;;;;5046272;28;20494;-82
2023/02/26 05:34:51;;;;;;;1.63;1.30;;;17.40;60.60;;;;;;5062622;28;20499;-82
2023/02/26 05:37:17;;;;;;;0.90;0.70;;;17.30;60.70;;;;;;5053493;28;20048;-82
2023/02/26 05:39:42;;;;;;;1.52;0.77;;;17.30;60.30;;;;;;5047682;28;20510;-82
2023/02/26 05:42:08;;;;;;;0.75;0.65;;;17.30;60.30;;;;;;5044594;28;20036;-82
2023/02/26 05:44:34;;;;;;;1.00;0.90;;;17.30;60.70;;;;;;5053690;28;20067;-82
2023/02/26 05:47:00;;;;;;;0.93;0.93;;;17.30;60.30;;;;;;5064699;28;20516;-82
2023/02/26 05:49:26;;;;;;;0.98;0.98;;;17.30;60.90;;;;;;5065497;28;20102;-82
2023/02/26 05:51:52;;;;;;;1.05;0.80;;;17.20;61.30;;;;;;5065926;28;20083;-82
2023/02/26 05:54:17;;;;;;;0.80;0.80;;;17.20;61.50;;;;;;5064781;28;20076;-82
2023/02/26 05:56:43;;;;;;;0.88;0.68;;;17.30;61.70;;;;;;5062632;28;20384;-83
2023/02/26 05:59:08;;;;;;;1.70;0.90;;;17.20;61.80;;;;;;5052116;28;20028;-83
2023/02/26 06:01:36;;;;;;;0.85;0.82;;;17.30;61.90;;;;;;5061343;28;20040;-82
2023/02/26 06:04:02;;;;;;;0.77;0.77;;;17.20;61.90;;;;;;5051495;28;20072;-82
2023/02/26 06:06:27;;;;;;;1.05;0.88;;;17.20;62.10;;;;;;5044172;28;20037;-82
2023/02/26 06:08:53;;;;;;;0.93;0.93;;;17.20;62.10;;;;;;5050670;28;20791;-82
2023/02/26 06:11:18;;;;;;;1.60;1.00;;;17.20;62.10;;;;;;5046735;28;20041;-81
2023/02/26 06:13:44;;;;;;;1.13;0.93;;;17.20;62.10;;;;;;5044916;28;20044;-81
2023/02/26 06:16:09;;;;;;;0.85;0.85;;;17.20;62.20;;;;;;5045403;28;20132;-81
2023/02/26 06:18:35;;;;;;;1.90;0.70;;;17.20;62.10;;;;;;5044340;28;20037;-82
2023/02/26 06:21:01;;;;;;;0.70;0.60;;;17.10;62.00;;;;;;5045291;28;20090;-82
2023/02/26 06:23:26;;;;;;;0.88;0.60;;;17.10;62.10;;;;;;5046681;28;20052;-82
2023/02/26 06:25:52;;;;;;;0.60;0.60;;;17.10;62.00;;;;;;5060206;28;20469;-82
2023/02/26 06:28:18;;;;;;;0.90;0.77;;;17.10;62.20;;;;;;5041039;28;20045;-82
2023/02/26 06:30:43;;;;;;;0.77;0.63;;;17.10;62.00;;;;;;5046511;28;20086;-82
2023/02/26 06:33:09;;;;;;;1.05;0.60;;;17.10;61.80;;;;;;5043347;28;20456;-82
2023/02/26 06:35:35;;;;;;;1.00;0.85;;;17.10;61.80;;;;;;5044544;28;20072;-82
2023/02/26 06:38:00;;;;;;;0.75;0.75;;;17.10;61.90;;;;;;5048724;28;20075;-82
2023/02/26 06:40:26;;;;;;;0.88;0.88;;;17.10;61.70;;;;;;5047111;28;20041;-82
2023/02/26 06:42:51;;;;;;;1.30;0.70;;;17.10;61.80;;;;;;5045191;28;20156;-82
2023/02/26 06:45:17;;;;;;;0.70;0.70;;;17.00;61.50;;;;;;5045389;28;20045;-82
2023/02/26 06:47:43;;;;;;;0.70;0.60;;;17.00;61.30;;;;;;5045018;28;20057;-82
2023/02/26 06:50:09;;;;;;;1.50;0.50;;;17.10;61.30;;;;;;5044256;28;20130;-83
2023/02/26 06:52:35;;;;;;;0.98;0.70;;;17.10;61.10;;;;;;5053210;28;20048;-82
2023/02/26 06:55:01;;;;;;;0.98;0.77;;;17.00;61.20;;;;;;5046719;28;20380;-83
2023/02/26 06:57:27;;;;;;;1.50;0.60;;;17.00;61.10;;;;;;5043059;28;20098;-82
2023/02/26 06:59:52;;;;;;;0.70;0.50;;;17.00;60.90;;;;;;5053111;28;20049;-82
2023/02/26 07:02:19;;;;;;;0.65;0.40;;;17.00;60.70;;;;;;5041677;28;20056;-82
2023/02/26 07:04:44;;;;;;;0.60;0.60;;;17.00;60.80;;;;;;5048762;28;20071;-82
2023/02/26 07:07:10;;;;;;;0.70;0.60;;;17.00;60.80;;;;;;5053845;28;20065;-82
2023/02/26 07:09:36;;;;;;;0.52;0.50;;;17.00;61.60;;;;;;5058339;28;20579;-82
2023/02/26 07:12:02;;;;;;;0.57;0.57;;;17.00;60.70;;;;;;5045441;28;20053;-82
2023/02/26 07:14:27;;;;;;;0.82;0.60;;;17.00;60.40;;;;;;5059417;28;20041;-82
2023/02/26 07:16:53;;;;;;;0.60;0.60;;;17.00;60.50;;;;;;5044094;28;20510;-82
2023/02/26 07:19:18;;;;;;;0.80;0.50;;;17.00;60.80;;;;;;5043025;28;20529;-82
2023/02/26 07:21:44;;;;;;;0.52;0.40;;;16.90;60.70;;;;;;5060106;28;20250;-82
2023/02/26 07:24:09;;;;;;;1.23;0.60;;;16.90;60.30;;;;;;5047068;28;20025;-82
2023/02/26 07:26:35;;;;;;;0.60;0.57;;;16.90;60.70;;;;;;5040947;28;20135;-81
2023/02/26 07:29:01;;;;;;;0.98;0.60;;;17.00;60.30;;;;;;5050737;28;20048;-81
2023/02/26 07:31:26;;;;;;;0.50;0.50;;;17.00;60.50;;;;;;5045533;28;20055;-82
2023/02/26 07:33:52;;;;;;;0.80;0.60;;;16.90;60.40;;;;;;5043232;28;20045;-79
2023/02/26 07:36:18;;;;;;;1.75;0.57;;;17.00;61.20;;;;;;5042515;28;20071;-82
2023/02/26 07:38:43;;;;;;;3.88;0.70;;;17.00;60.90;;;;;;5043767;28;20051;-82
2023/02/26 07:41:09;;;;;;;1.02;0.93;;;17.10;60.20;;;;;;5081005;28;20079;-82
2023/02/26 07:43:34;;;;;;;3.10;1.55;;;17.20;60.80;;;;;;5044198;28;20044;-81
2023/02/26 07:46:00;;;;;;;3.25;2.30;;;17.20;61.00;;;;;;5042945;28;20171;-80
2023/02/26 07:48:26;;;;;;;2.65;2.40;;;17.10;60.70;;;;;;5043697;28;20049;-78
2023/02/26 07:50:52;;;;;;;2.58;2.38;;;17.20;60.90;;;;;;5057390;28;20045;-79
2023/02/26 07:53:17;;;;;;;3.92;2.90;;;17.20;60.90;;;;;;5055235;28;20068;-77
2023/02/26 07:55:43;;;;;;;3.40;3.10;;;17.30;61.10;;;;;;5043918;28;20664;-77
2023/02/26 07:58:09;;;;;;;4.68;3.63;;;17.30;60.70;;;;;;5058670;28;20059;-76
2023/02/26 08:00:34;;;;;;;4.40;4.10;;;17.30;61.10;;;;;;5045511;28;20171;-77
2023/02/26 08:03:00;;;;;;;6.43;4.03;;;17.40;61.20;;;;;;5044965;28;20127;-77
2023/02/26 08:10:38;;;;;;;3.95;3.53;;;17.40;62.10;;;;;;5361727;22;20432;-75
2023/02/26 08:13:03;;;;;;;7.68;6.60;;;17.40;61.60;;;;;;5035663;28;20471;-76
2023/02/26 08:15:29;;;;;;;12.38;7.32;;;17.50;61.80;;;;;;5041056;28;20049;-77
2023/02/26 08:17:55;;;;;;;11.05;9.02;;;17.60;61.70;;;;;;5039762;28;20126;-81
2023/02/26 08:20:21;;;;;;;13.35;9.82;;;17.60;61.60;;;;;;5038098;28;20056;-79
2023/02/26 08:22:46;;;;;;;12.48;10.93;;;17.60;61.50;;;;;;5046532;28;20413;-79
2023/02/26 08:25:12;;;;;;;15.50;11.43;;;17.60;61.50;;;;;;5048903;28;20037;-79
2023/02/26 08:27:38;;;;;;;12.73;9.88;;;17.50;61.90;;;;;;5047945;28;20047;-79
2023/02/26 08:30:04;;;;;;;11.90;9.38;;;17.40;61.90;;;;;;5049215;28;20037;-79
2023/02/26 08:32:30;;;;;;;17.35;10.40;;;17.40;61.70;;;;;;5048723;28;20068;-84
2023/02/26 08:34:55;;;;;;;14.88;11.43;;;17.50;60.70;;;;;;5048467;28;20579;-81
2023/02/26 08:37:24;;;;;;;18.55;12.27;;;17.60;61.30;;;;;;4694415;28;9999892;-83
2023/02/26 08:39:50;;;;;;;19.60;14.18;;;17.60;60.40;;;;;;5044909;28;20509;-80
2023/02/26 08:42:16;;;;;;;16.02;11.80;;;17.50;60.50;;;;;;5042465;28;20045;-83
2023/02/26 08:44:42;;;;;;;17.70;12.23;;;17.60;60.00;;;;;;5044895;28;20673;-78
2023/02/26 08:47:08;;;;;;;17.67;11.80;;;17.60;59.80;;;;;;5046073;28;20041;-79
2023/02/26 08:49:33;;;;;;;16.40;11.23;;;17.70;60.20;;;;;;5045532;28;20117;-79
2023/02/26 08:51:59;;;;;;;14.77;10.75;;;17.70;60.80;;;;;;5046024;28;20723;-78
2023/02/26 08:54:24;;;;;;;12.35;9.90;;;17.70;60.60;;;;;;5039908;28;20072;-79
2023/02/26 08:56:52;;;;;;;12.82;9.95;;;17.80;60.00;;;;;;5042176;28;20065;-78
2023/02/26 08:59:17;;;;;;;15.43;10.25;;;17.90;60.20;;;;;;5040891;28;20577;-79
2023/02/26 09:01:43;;;;;;;13.00;9.40;;;17.90;60.10;;;;;;5037994;28;20128;-79
2023/02/26 09:04:09;;;;;;;12.38;8.80;;;17.90;59.50;;;;;;5046068;28;20506;-79
2023/02/26 09:06:34;;;;;;;11.35;8.65;;;18.00;60.50;;;;;;5042257;28;20513;-80
2023/02/26 09:09:00;;;;;;;10.05;8.35;;;18.00;60.20;;;;;;5045983;28;20387;-79
2023/02/26 09:11:25;;;;;;;13.00;8.13;;;18.10;59.90;;;;;;5047985;28;20413;-81
2023/02/26 09:13:51;;;;;;;11.13;8.57;;;18.20;60.20;;;;;;5042590;28;20048;-83
2023/02/26 09:16:17;;;;;;;11.27;7.90;;;18.30;59.70;;;;;;5042151;28;20044;-80
2023/02/26 09:18:42;;;;;;;11.35;7.40;;;18.30;59.90;;;;;;5068965;28;20044;-79
2023/02/26 09:21:08;;;;;;;9.68;7.55;;;18.40;60.00;;;;;;5069473;28;20068;-81
2023/02/26 09:23:33;;;;;;;12.70;7.10;;;18.50;59.70;;;;;;5070480;28;20108;-80
2023/02/26 09:25:59;;;;;;;9.05;6.90;;;18.50;59.30;;;;;;5068229;28;20520;-80
2023/02/26 09:28:25;;;;;;;10.15;7.05;;;18.60;59.10;;;;;;5063719;28;20033;-79
2023/02/26 09:30:52;;;;;;;11.05;6.90;;;18.70;58.80;;;;;;5064602;28;20448;-80
2023/02/26 09:33:18;;;;;;;7.43;6.05;;;18.80;58.70;;;;;;5064442;28;20036;-80
2023/02/26 09:35:43;;;;;;;7.20;6.45;;;18.80;58.30;;;;;;5067678;28;20047;-81
2023/02/26 09:38:09;;;;;;;7.15;6.50;;;18.90;58.20;;;;;;5067945;28;20059;-80
2023/02/26 09:40:50;;;;;;;7.90;5.75;;;19.00;58.10;;;;;;5066648;28;20056;-80
2023/02/26 09:43:55;;;;;;;6.78;6.10;;;19.20;57.70;;;;;;5065229;28;20513;-79
2023/02/26 09:46:30;;;;;;;8.45;5.35;;;19.30;57.30;;;;;;5065760;28;20044;-79
2023/02/26 09:49:19;;;;;;;6.03;5.43;;;19.30;56.30;;;;;;5066248;28;20080;-81
2023/02/26 09:51:46;;;;;;;5.90;5.15;;;19.40;56.50;;;;;;5057384;28;20075;-81
2023/02/26 09:54:18;;;;;;;6.90;6.15;;;19.70;56.50;;;;;;5063005;28;20043;-83
2023/02/26 09:56:44;;;;;;;5.95;4.70;;;19.80;56.20;;;;;;5064196;28;20083;-83
2023/02/26 09:59:10;;;;;;;5.55;5.05;;;20.10;56.00;;;;;;5066341;28;20090;-89
2023/02/26 10:01:43;;;;;;;5.93;5.32;;;20.20;55.50;;;;;;5055250;28;20082;-82
2023/02/26 10:04:36;;;;;;;4.97;4.57;;;20.30;55.50;;;;;;5062094;28;20040;-86
2023/02/26 10:07:22;;;;;;;5.47;4.95;;;20.50;55.40;;;;;;5062802;28;20450;-86
2023/02/26 10:10:14;;;;;;;5.15;4.65;;;20.60;55.40;;;;;;5063234;28;20119;-88
2023/02/26 10:12:40;;;;;;;5.43;4.70;;;20.80;55.00;;;;;;5064819;28;20044;-82
2023/02/26 10:15:15;;;;;;;4.20;3.80;;;20.80;55.10;;;;;;5064394;28;20052;-86
2023/02/26 10:17:53;;;;;;;5.05;4.50;;;21.00;54.90;;;;;;5061656;28;20170;-82
2023/02/26 10:20:28;;;;;;;6.25;4.32;;;21.10;55.10;;;;;;5064218;28;20048;-80
2023/02/26 10:23:05;;;;;;;5.00;4.47;;;21.20;54.80;;;;;;5049758;28;20044;-83
2023/02/26 10:26:02;;;;;;;5.10;4.60;;;21.20;55.10;;;;;;5064590;28;20153;-83
2023/02/26 10:28:53;;;;;;;8.98;4.35;;;21.30;55.10;;;;;;5064088;28;20130;-81
2023/02/26 10:31:26;;;;;;;5.75;4.30;;;21.30;55.20;;;;;;5064720;28;20106;-76
2023/02/26 10:33:56;;;;;;;5.13;4.70;;;21.40;55.40;;;;;;5062737;28;20461;-82
2023/02/26 10:36:24;;;;;;;5.72;4.53;;;21.50;55.70;;;;;;5064876;28;20064;-82
2023/02/26 10:38:54;;;;;;;4.72;4.10;;;21.50;56.10;;;;;;5064858;28;20048;-84
2023/02/26 10:41:23;;;;;;;5.22;4.63;;;21.50;56.10;;;;;;5048190;28;20076;-82
2023/02/26 10:43:55;;;;;;;5.30;4.80;;;21.60;56.40;;;;;;4363081;28;10000734;-79
2023/02/26 10:46:32;;;;;;;5.30;4.78;;;21.50;56.20;;;;;;5045509;28;20055;-83
2023/02/26 10:49:36;;;;;;;5.40;4.90;;;21.50;56.30;;;;;;5050684;28;20048;-84
2023/02/26 10:52:12;;;;;;;4.13;3.65;;;21.40;56.50;;;;;;5060445;28;20133;-82
2023/02/26 10:54:53;;;;;;;5.00;4.00;;;21.40;56.60;;;;;;5060122;28;20086;-82
2023/02/26 10:57:23;;;;;;;4.25;3.88;;;21.30;56.90;;;;;;5046383;28;20727;-88
2023/02/26 10:59:49;;;;;;;5.25;4.03;;;21.30;56.90;;;;;;5062896;28;20050;-79
2023/02/26 11:02:51;;;;;;;4.45;3.90;;;21.40;56.90;;;;;;5064996;28;20780;-78
2023/02/26 11:05:18;;;;;;;6.53;4.38;;;21.60;56.80;;;;;;4984524;28;20146;-80
2023/02/26 11:07:46;;;;;;;5.07;3.63;;;21.60;56.60;;;;;;4990404;28;20033;-81
2023/02/26 11:10:19;;;;;;;3.75;3.45;;;21.60;56.80;;;;;;4987490;28;20042;-83
2023/02/26 11:12:46;;;;;;;4.13;3.72;;;21.60;56.70;;;;;;4986384;28;20048;-79
2023/02/26 11:15:13;;;;;;;4.70;4.00;;;21.60;57.20;;;;;;5001834;28;20045;-77
2023/02/26 11:17:38;;;;;;;5.55;4.55;;;21.50;57.80;;;;;;5001368;28;20038;-79
2023/02/26 11:20:10;;;;;;;7.45;4.40;;;21.50;58.20;;;;;;5001532;28;20053;-80
2023/02/26 11:22:36;;;;;;;5.22;3.85;;;21.40;58.20;;;;;;5003767;28;20054;-77
2023/02/26 11:25:02;;;;;;;9.40;4.05;;;21.40;58.50;;;;;;4985249;28;20034;-77
2023/02/26 11:27:35;;;;;;;7.93;3.33;;;21.30;58.00;;;;;;4970817;28;20205;-77
2023/02/26 11:30:10;;;;;;;4.20;3.38;;;21.30;58.20;;;;;;5005477;28;20439;-77
2023/02/26 11:32:36;;;;;;;6.18;2.83;;;21.20;58.30;;;;;;4972396;28;20044;-77
2023/02/26 11:35:02;;;;;;;6.03;3.05;;;21.20;58.30;;;;;;5005145;28;20050;-77
2023/02/26 11:37:34;;;;;;;6.95;3.22;;;21.10;58.30;;;;;;4987503;28;20510;-77
2023/02/26 11:40:15;;;;;;;4.40;3.60;;;21.10;58.20;;;;;;5049367;28;20052;-77
2023/02/26 11:42:52;;;;;;;3.28;2.97;;;21.10;58.20;;;;;;5062749;28;20386;-80
2023/02/26 11:45:18;;;;;;;4.70;2.67;;;21.10;57.60;;;;;;5070666;28;20431;-80
2023/02/26 11:47:44;;;;;;;5.88;3.08;;;21.10;57.50;;;;;;5069368;28;20052;-80
2023/02/26 11:50:15;;;;;;;5.55;2.40;;;21.00;57.70;;;;;;5053702;28;20112;-80
2023/02/26 11:52:43;;;;;;;4.55;2.67;;;21.00;57.80;;;;;;5053350;28;20473;-81
2023/02/26 11:55:29;;;;;;;4.68;2.78;;;21.10;57.90;;;;;;5068863;28;20056;-80
2023/02/26 11:57:55;;;;;;;3.72;2.85;;;21.00;57.80;;;;;;5067421;28;20041;-80
2023/02/26 12:00:32;;;;;;;3.58;2.47;;;20.90;57.90;;;;;;5070111;28;20040;-80
2023/02/26 12:03:03;;;;;;;4.05;2.70;;;21.00;58.00;;;;;;5070722;28;20063;-80
2023/02/26 12:05:29;;;;;;;2.70;2.10;;;20.90;58.00;;;;;;5070487;28;23875;-78
2023/02/26 12:07:54;;;;;;;3.78;2.45;;;20.90;58.00;;;;;;5070228;28;20094;-80
2023/02/26 12:10:52;;;;;;;2.92;2.50;;;20.90;58.10;;;;;;5070030;28;20086;-80
2023/02/26 12:13:41;;;;;;;4.13;2.40;;;20.90;57.90;;;;;;5067908;28;20060;-80
2023/02/26 12:16:24;;;;;;;2.70;2.50;;;20.90;58.00;;;;;;5053185;28;20094;-80
2023/02/26 12:18:54;;;;;;;3.13;2.28;;;20.90;57.90;;;;;;5069558;28;20052;-82
2023/02/26 12:21:43;;;;;;;2.70;2.50;;;20.80;57.70;;;;;;5065521;28;20043;-82
2023/02/26 12:24:16;;;;;;;2.33;2.13;;;20.90;57.70;;;;;;5065480;28;20170;-82
2023/02/26 12:26:56;;;;;;;2.25;2.13;;;20.80;57.70;;;;;;5068929;28;20459;-81
2023/02/26 12:29:53;;;;;;;3.40;2.00;;;20.80;57.80;;;;;;5070497;28;20573;-82
2023/02/26 12:32:21;;;;;;;1.98;1.80;;;20.80;57.80;;;;;;5068484;28;20040;-83
2023/02/26 12:35:08;;;;;;;3.70;1.63;;;20.80;57.80;;;;;;5068918;28;20052;-82
2023/02/26 12:37:54;;;;;;;3.17;2.05;;;20.70;57.90;;;;;;5072706;28;20136;-82
2023/02/26 12:40:29;;;;;;;2.53;2.33;;;20.70;57.90;;;;;;5054743;28;20047;-82
2023/02/26 12:43:06;;;;;;;2.00;1.80;;;20.70;58.00;;;;;;5070957;28;20036;-83
2023/02/26 12:45:34;;;;;;;2.28;2.08;;;20.60;58.00;;;;;;5069963;28;20600;-81
2023/02/26 12:48:24;;;;;;;2.20;2.00;;;20.60;58.10;;;;;;5070158;28;20554;-81
2023/02/26 12:50:53;;;;;;;2.10;1.95;;;20.50;58.20;;;;;;5069374;28;20047;-81
2023/02/26 12:53:37;;;;;;;3.50;2.20;;;20.50;58.30;;;;;;5067705;28;20076;-82
2023/02/26 12:56:24;;;;;;;1.85;1.75;;;20.50;58.40;;;;;;5069180;28;20517;-81
2023/02/26 12:58:57;;;;;;;1.95;1.85;;;20.50;58.30;;;;;;5069335;28;20494;-81
2023/02/26 13:01:43;;;;;;;2.10;1.52;;;20.50;58.30;;;;;;5070265;28;20086;-81
2023/02/26 13:04:33;;;;;;;1.80;1.70;;;20.50;58.40;;;;;;5068881;28;20029;-82
2023/02/26 13:07:20;;;;;;;1.77;1.60;;;20.50;58.20;;;;;;5067801;28;20049;-82
2023/02/26 13:10:16;;;;;;;2.65;2.10;;;20.40;58.30;;;;;;5068854;28;20516;-82